Time;durP1;ratioP1;P1;durP2;ratioP2;P2;SDS_P1;SDS_P2;PMS_P1;PMS_P2;Temp;Humidity;BMP_temperature;BMP_pressure;BME280_temperature;BME280_humidity;BME280_pressure;Samples;Min_cycle;Max_cycle;Signal;HPM_P1;HPM_P2
2021/12/05 00:21:10;;;;;;;17.57;12.50;;;0.90;97.20;;;;;;5008119;28;20444;-52
2021/12/05 00:23:40;;;;;;;19.80;13.00;;;0.90;93.70;;;;;;5002024;28;20504;-52
2021/12/05 00:26:11;;;;;;;19.70;13.87;;;0.90;92.50;;;;;;5017167;28;20479;-52
2021/12/05 00:29:00;;;;;;;15.80;12.17;;;0.90;94.00;;;;;;5037463;28;20453;-52
2021/12/05 00:31:45;;;;;;;18.40;14.10;;;0.90;90.30;;;;;;5036844;28;20469;-52
2021/12/05 00:37:45;;;;;;;18.70;13.40;;;0.90;97.60;;;;;;5049827;28;20480;-52
2021/12/05 00:43:26;;;;;;;16.63;13.07;;;0.90;99.90;;;;;;5027103;28;20471;-53
2021/12/05 00:46:16;;;;;;;15.53;12.60;;;0.90;99.90;;;;;;5039409;28;20533;-52
2021/12/05 01:02:55;;;;;;;17.90;12.93;;;1.00;99.90;;;;;;5031997;28;20536;-52
2021/12/05 01:11:04;;;;;;;16.73;13.67;;;0.90;99.90;;;;;;5041400;28;21009;-52
2021/12/05 01:13:43;;;;;;;18.37;13.13;;;0.90;99.90;;;;;;5039372;28;20830;-51
2021/12/05 01:16:13;;;;;;;19.37;13.30;;;0.90;99.90;;;;;;5046914;28;20488;-53
2021/12/05 01:18:40;;;;;;;17.77;12.80;;;0.90;98.50;;;;;;5035090;28;20458;-52
2021/12/05 01:21:13;;;;;;;20.93;13.20;;;0.90;90.20;;;;;;5055918;28;20441;-52
2021/12/05 01:23:51;;;;;;;15.67;13.00;;;0.90;89.50;;;;;;5039351;28;20551;-51
2021/12/05 01:26:21;;;;;;;18.87;13.20;;;0.90;95.70;;;;;;5038774;28;20508;-52
2021/12/05 01:29:20;;;;;;;21.93;14.00;;;0.90;84.80;;;;;;5035595;28;20534;-51
2021/12/05 01:31:57;;;;;;;17.03;13.70;;;0.90;99.90;;;;;;5043125;28;20835;-51
2021/12/05 01:34:36;;;;;;;18.60;13.50;;;0.90;87.80;;;;;;5039992;28;20465;-52
2021/12/05 01:37:15;;;;;;;16.87;13.07;;;0.90;88.40;;;;;;5034615;28;20508;-52
2021/12/05 01:39:55;;;;;;;17.63;13.17;;;0.90;89.00;;;;;;5037455;28;20467;-52
2021/12/05 01:48:32;;;;;;;20.40;13.73;;;1.00;95.80;;;;;;4958668;28;20449;-52
2021/12/05 01:54:01;;;;;;;18.47;13.43;;;1.00;99.90;;;;;;5041196;28;20884;-52
2021/12/05 01:56:45;;;;;;;19.80;15.50;;;1.00;99.90;;;;;;5035062;28;20473;-51
2021/12/05 01:59:42;;;;;;;19.57;13.57;;;1.00;99.90;;;;;;5047347;28;20454;-50
2021/12/05 02:02:48;;;;;;;20.10;15.23;;;1.00;99.90;;;;;;5043208;28;20465;-51
2021/12/05 02:08:44;;;;;;;18.67;15.37;;;1.00;99.90;;;;;;4972845;28;20456;-52
2021/12/05 02:11:39;;;;;;;22.30;15.83;;;1.00;99.90;;;;;;5041616;28;20489;-52
2021/12/05 02:30:59;;;;;;;21.27;15.90;;;1.00;99.90;;;;;;5037102;28;20445;-52
2021/12/05 02:36:33;;;;;;;19.83;15.53;;;1.00;99.90;;;;;;5033952;28;20481;-53
2021/12/05 02:39:12;;;;;;;20.90;16.37;;;1.00;99.90;;;;;;5045067;28;20466;-54
2021/12/05 02:41:41;;;;;;;23.47;17.40;;;1.00;99.90;;;;;;5042377;28;20964;-53
2021/12/05 02:44:14;;;;;;;24.17;17.23;;;1.00;99.90;;;;;;5040055;28;20488;-53
2021/12/05 02:46:43;;;;;;;26.43;17.33;;;1.00;99.90;;;;;;5046408;28;20608;-52
2021/12/05 02:49:11;;;;;;;22.17;17.70;;;1.00;99.90;;;;;;5041714;28;20542;-52
2021/12/05 02:51:37;;;;;;;24.70;18.10;;;1.00;99.90;;;;;;5035743;28;20976;-52
2021/12/05 02:54:09;;;;;;;25.03;17.27;;;1.00;99.90;;;;;;5035767;28;20968;-53
2021/12/05 02:56:41;;;;;;;22.63;16.70;;;1.00;99.90;;;;;;5037953;28;21017;-53
2021/12/05 02:59:19;;;;;;;23.60;17.80;;;1.00;99.90;;;;;;5041156;28;20470;-52
2021/12/05 03:01:50;;;;;;;21.60;16.00;;;1.00;99.90;;;;;;5039703;28;20465;-53
2021/12/05 03:04:17;;;;;;;25.70;17.93;;;1.00;99.90;;;;;;5046113;28;20524;-52
2021/12/05 03:06:50;;;;;;;24.27;16.87;;;1.00;99.90;;;;;;5034794;28;20486;-52
2021/12/05 03:09:19;;;;;;;23.80;18.90;;;1.00;99.90;;;;;;5031223;28;20936;-53
2021/12/05 03:11:46;;;;;;;27.20;17.90;;;1.00;99.90;;;;;;5049572;28;20545;-52
2021/12/05 03:14:13;;;;;;;22.00;16.50;;;1.00;99.90;;;;;;5033790;28;20544;-52
2021/12/05 03:16:41;;;;;;;24.50;18.27;;;1.00;99.90;;;;;;5039051;28;20531;-52
2021/12/05 03:19:09;;;;;;;25.77;17.77;;;1.00;99.90;;;;;;5035187;28;20493;-52
2021/12/05 03:21:38;;;;;;;22.70;17.10;;;1.00;99.90;;;;;;5034173;28;20502;-52
2021/12/05 03:24:06;;;;;;;24.53;17.10;;;0.90;99.90;;;;;;5048379;28;21019;-52
2021/12/05 03:26:36;;;;;;;26.60;18.17;;;1.00;99.90;;;;;;5042230;28;20512;-53
2021/12/05 03:29:05;;;;;;;28.87;19.90;;;1.00;99.90;;;;;;5049102;28;20486;-53
2021/12/05 03:31:32;;;;;;;22.90;16.60;;;1.00;99.90;;;;;;5044728;28;20461;-52
2021/12/05 03:34:00;;;;;;;26.50;17.93;;;1.00;99.90;;;;;;5037979;28;20551;-52
2021/12/05 03:36:27;;;;;;;29.20;19.43;;;0.90;99.90;;;;;;5048315;28;20485;-52
2021/12/05 03:38:54;;;;;;;27.03;19.60;;;1.00;99.90;;;;;;5046821;28;20550;-52
2021/12/05 03:41:21;;;;;;;26.07;18.37;;;1.00;99.90;;;;;;5036628;28;20892;-52
2021/12/05 03:43:53;;;;;;;28.00;18.17;;;1.00;99.90;;;;;;5051056;28;20675;-52
2021/12/05 03:46:21;;;;;;;24.03;18.73;;;1.00;99.90;;;;;;5045401;28;20589;-52
2021/12/05 03:48:51;;;;;;;24.40;18.43;;;1.00;99.90;;;;;;5036767;28;20523;-52
2021/12/05 03:51:20;;;;;;;24.00;17.30;;;1.00;99.90;;;;;;5036542;28;20548;-53
2021/12/05 03:53:47;;;;;;;26.10;18.23;;;1.00;99.90;;;;;;5034109;28;20497;-53
2021/12/05 03:56:14;;;;;;;26.00;19.17;;;1.00;99.90;;;;;;5040760;28;20521;-52
2021/12/05 03:58:41;;;;;;;24.23;17.50;;;1.10;99.90;;;;;;5036824;28;21030;-53
2021/12/05 04:01:11;;;;;;;25.90;19.50;;;1.10;99.90;;;;;;5042908;28;20493;-52
2021/12/05 04:03:41;;;;;;;23.60;18.20;;;1.00;99.90;;;;;;5044140;28;20571;-52
2021/12/05 04:06:11;;;;;;;24.60;19.17;;;1.00;99.90;;;;;;5049419;28;20618;-52
2021/12/05 04:08:39;;;;;;;25.83;18.97;;;1.10;99.90;;;;;;5042357;28;20959;-52
2021/12/05 04:11:09;;;;;;;23.17;17.60;;;1.10;99.90;;;;;;5034197;28;20450;-52
2021/12/05 04:13:35;;;;;;;22.07;18.70;;;1.10;99.90;;;;;;5042478;23;20593;-52
2021/12/05 04:16:04;;;;;;;26.80;17.53;;;1.20;99.90;;;;;;5031670;28;20562;-53
2021/12/05 04:18:33;;;;;;;22.20;17.37;;;1.20;99.90;;;;;;5036196;28;20506;-53
2021/12/05 04:21:00;;;;;;;20.97;17.37;;;1.10;99.90;;;;;;5032062;28;20485;-52
2021/12/05 04:23:27;;;;;;;29.17;19.43;;;1.10;99.90;;;;;;5017457;28;20523;-51
2021/12/05 04:25:54;;;;;;;22.03;17.53;;;1.10;99.90;;;;;;5013092;28;20514;-51
2021/12/05 04:28:22;;;;;;;26.20;19.23;;;1.20;99.90;;;;;;5012589;28;20479;-51
2021/12/05 04:30:50;;;;;;;26.10;19.57;;;1.10;99.90;;;;;;5012704;28;20556;-52
2021/12/05 04:33:18;;;;;;;23.23;18.30;;;1.10;99.90;;;;;;5013142;28;21052;-52
2021/12/05 04:35:47;;;;;;;23.23;18.23;;;1.10;99.90;;;;;;5012143;28;20531;-51
2021/12/05 04:38:14;;;;;;;26.50;19.70;;;1.10;99.90;;;;;;5011862;28;20556;-51
2021/12/05 04:40:45;;;;;;;24.43;17.80;;;1.20;99.90;;;;;;5006091;28;20539;-51
2021/12/05 04:43:11;;;;;;;27.13;19.60;;;1.10;99.90;;;;;;5007580;28;21051;-51
2021/12/05 04:45:39;;;;;;;22.33;17.97;;;1.20;99.90;;;;;;5011489;28;20499;-52
2021/12/05 04:48:07;;;;;;;23.20;18.50;;;1.20;99.90;;;;;;5011929;28;20543;-52
2021/12/05 04:50:35;;;;;;;24.43;19.07;;;1.20;99.90;;;;;;5011913;28;20470;-51
2021/12/05 04:53:04;;;;;;;24.80;19.73;;;1.20;99.90;;;;;;5009414;28;20506;-52
2021/12/05 04:55:31;;;;;;;23.77;18.30;;;1.20;99.90;;;;;;5010841;28;20538;-51
2021/12/05 04:57:58;;;;;;;24.03;18.37;;;1.20;99.90;;;;;;5010534;28;20490;-52
2021/12/05 05:00:27;;;;;;;23.20;18.50;;;1.20;99.90;;;;;;5010451;28;21767;-51
2021/12/05 05:02:55;;;;;;;26.43;18.90;;;1.20;99.90;;;;;;5006911;28;21088;-50
2021/12/05 05:05:22;;;;;;;29.77;18.43;;;1.20;99.90;;;;;;5012387;28;20597;-52
2021/12/05 05:07:49;;;;;;;25.70;18.97;;;1.20;99.90;;;;;;5008139;28;20529;-52
2021/12/05 05:10:20;;;;;;;27.27;18.73;;;1.20;99.90;;;;;;5012708;28;20490;-53
2021/12/05 05:12:47;;;;;;;23.10;18.70;;;1.20;99.90;;;;;;5010119;28;20561;-53
2021/12/05 05:15:20;;;;;;;22.00;17.43;;;1.20;99.90;;;;;;5006275;28;20483;-52
2021/12/05 05:17:49;;;;;;;23.57;17.53;;;1.30;99.90;;;;;;5010803;28;20460;-52
2021/12/05 05:20:22;;;;;;;26.17;18.70;;;1.20;99.90;;;;;;5008050;28;20534;-52
2021/12/05 05:23:05;;;;;;;26.23;17.70;;;1.20;99.90;;;;;;5009929;28;20505;-51
2021/12/05 05:39:42;;;;;;;24.30;18.80;;;1.20;99.90;;;;;;5007459;28;20486;-51
2021/12/05 05:42:38;;;;;;;23.03;18.00;;;1.20;99.90;;;;;;5009691;28;20554;-52
2021/12/05 05:45:22;;;;;;;23.37;17.60;;;1.20;99.90;;;;;;5010867;28;20484;-51
2021/12/05 05:48:00;;;;;;;26.00;18.73;;;1.20;99.90;;;;;;5005123;28;20467;-54
2021/12/05 05:50:27;;;;;;;28.20;18.87;;;1.30;99.90;;;;;;5008552;28;20477;-52
2021/12/05 05:52:54;;;;;;;23.10;18.03;;;1.30;99.90;;;;;;5009280;28;20503;-52
2021/12/05 05:55:21;;;;;;;19.57;16.80;;;1.30;99.90;;;;;;5010075;28;20492;-51
2021/12/05 05:57:59;;;;;;;22.67;17.30;;;1.30;99.90;;;;;;5005801;28;20515;-51
2021/12/05 06:00:31;;;;;;;24.30;17.60;;;1.20;99.90;;;;;;5007838;28;20463;-51
2021/12/05 06:05:53;;;;;;;20.70;16.63;;;1.30;99.90;;;;;;4995796;28;20494;-52
2021/12/05 06:08:23;;;;;;;24.77;19.17;;;1.30;99.90;;;;;;5009793;28;20906;-52
2021/12/05 06:10:50;;;;;;;25.63;19.70;;;1.20;99.90;;;;;;5009697;28;20520;-52
2021/12/05 06:13:19;;;;;;;24.90;18.17;;;1.20;99.90;;;;;;5010223;28;20545;-52
2021/12/05 06:15:46;;;;;;;23.30;19.07;;;1.20;99.90;;;;;;5010489;28;20506;-52
2021/12/05 06:18:13;;;;;;;24.30;17.40;;;1.20;99.90;;;;;;5010293;28;20902;-53
2021/12/05 06:20:40;;;;;;;24.87;17.67;;;1.20;99.90;;;;;;5009887;28;20495;-53
2021/12/05 06:23:07;;;;;;;21.70;17.77;;;1.20;99.90;;;;;;5010426;28;20594;-53
2021/12/05 06:25:41;;;;;;;22.37;18.07;;;1.20;99.90;;;;;;5009764;28;20511;-53
2021/12/05 06:28:11;;;;;;;24.60;18.40;;;1.30;99.90;;;;;;5010231;28;20460;-53
2021/12/05 06:30:48;;;;;;;25.90;19.57;;;1.30;99.90;;;;;;5008485;28;20475;-53
2021/12/05 06:41:58;;;;;;;27.60;19.50;;;1.30;99.90;;;;;;5002659;28;20539;-51
2021/12/05 06:47:12;;;;;;;27.13;19.57;;;1.20;99.90;;;;;;5008031;28;20451;-53
2021/12/05 06:49:39;;;;;;;27.83;19.40;;;1.30;99.90;;;;;;5004527;28;20514;-53
2021/12/05 06:52:08;;;;;;;25.00;19.57;;;1.20;99.90;;;;;;5008479;28;20460;-52
2021/12/05 06:54:36;;;;;;;24.57;18.63;;;1.20;99.90;;;;;;4996958;28;20506;-53
2021/12/05 06:57:04;;;;;;;23.67;18.57;;;1.20;99.90;;;;;;5013475;28;20471;-52
2021/12/05 06:59:31;;;;;;;23.40;18.43;;;1.10;99.90;;;;;;5012088;28;20496;-53
2021/12/05 07:01:58;;;;;;;24.20;18.00;;;1.20;99.90;;;;;;5008017;28;21350;-52
2021/12/05 07:07:17;;;;;;;25.07;18.90;;;1.20;99.90;;;;;;4998923;28;20448;-52
2021/12/05 07:09:43;;;;;;;28.00;18.73;;;1.20;99.90;;;;;;5013802;28;20451;-52
2021/12/05 07:12:42;;;;;;;25.83;18.93;;;1.20;99.90;;;;;;5013866;28;20497;-52
2021/12/05 07:15:11;;;;;;;25.57;19.23;;;1.20;99.90;;;;;;5007614;28;20462;-52
2021/12/05 07:20:22;;;;;;;25.57;19.23;;;1.10;99.90;;;;;;5017261;28;20565;-52
2021/12/05 07:23:05;;;;;;;24.33;18.10;;;1.10;99.90;;;;;;5012597;28;20224;-52
2021/12/05 07:25:43;;;;;;;28.33;19.77;;;1.10;99.90;;;;;;5006684;28;20487;-53
2021/12/05 07:42:14;;;;;;;26.97;20.83;;;1.10;99.90;;;;;;4930186;29;21035;-52
2021/12/05 07:44:40;;;;;;;29.20;21.20;;;1.10;99.90;;;;;;4981388;28;20481;-53
2021/12/05 07:47:07;;;;;;;29.07;19.90;;;1.10;99.90;;;;;;5010690;28;20495;-53
2021/12/05 07:49:34;;;;;;;26.00;19.13;;;1.10;99.90;;;;;;5009948;28;20459;-52
2021/12/05 07:52:01;;;;;;;34.10;21.37;;;1.10;99.90;;;;;;5011644;28;20522;-52
2021/12/05 07:54:34;;;;;;;30.47;21.00;;;1.10;99.90;;;;;;5009440;28;20945;-52
2021/12/05 07:57:14;;;;;;;31.03;22.03;;;1.10;99.90;;;;;;5011516;28;20526;-53
2021/12/05 07:59:55;;;;;;;30.83;22.37;;;1.10;99.90;;;;;;5009549;28;20988;-53
2021/12/05 08:16:08;;;;;;;29.37;22.10;;;1.20;99.90;;;;;;5011025;28;20506;-51
2021/12/05 08:18:36;;;;;;;29.17;22.03;;;1.30;99.90;;;;;;5006083;28;20455;-54
2021/12/05 08:21:05;;;;;;;32.43;22.10;;;1.20;99.90;;;;;;5011290;28;20542;-52
2021/12/05 08:23:34;;;;;;;27.60;21.77;;;1.20;99.90;;;;;;5010317;28;20475;-53
2021/12/05 08:26:05;;;;;;;32.67;23.47;;;1.20;99.90;;;;;;5011503;28;20522;-53
2021/12/05 08:28:52;;;;;;;31.83;22.83;;;1.20;99.90;;;;;;5010562;28;20466;-53
2021/12/05 08:31:22;;;;;;;31.40;22.70;;;1.20;99.90;;;;;;5009313;28;20470;-52
2021/12/05 08:34:02;;;;;;;34.50;24.20;;;1.30;99.90;;;;;;5011599;28;20483;-52
2021/12/05 09:23:44;;;;;;;35.20;25.37;;;1.40;99.90;;;;;;5007286;28;20472;-52
2021/12/05 09:26:28;;;;;;;35.97;25.20;;;1.50;99.90;;;;;;5005023;28;20479;-51
2021/12/05 09:29:21;;;;;;;35.30;25.33;;;1.50;99.90;;;;;;5013434;28;20459;-51
2021/12/05 09:51:17;;;;;;;35.97;26.33;;;1.50;99.90;;;;;;5008027;28;20606;-54
2021/12/05 10:02:34;;;;;;;38.63;27.13;;;1.50;99.90;;;;;;5000480;28;20505;-51
2021/12/05 10:10:37;;;;;;;45.40;27.67;;;1.60;99.90;;;;;;5005134;28;20462;-50
2021/12/05 10:13:21;;;;;;;40.87;28.70;;;1.60;99.90;;;;;;5015559;22;20478;-56
2021/12/05 10:16:06;;;;;;;40.83;28.00;;;1.60;99.90;;;;;;5009855;28;20546;-58
2021/12/05 10:27:24;;;;;;;37.97;26.80;;;1.60;99.90;;;;;;5030013;28;20512;-59
2021/12/05 10:35:52;;;;;;;38.53;26.63;;;1.80;99.90;;;;;;5032533;28;20454;-56
2021/12/05 10:38:21;;;;;;;38.53;27.00;;;1.80;94.20;;;;;;5025687;28;20459;-56
2021/12/05 10:40:59;;;;;;;35.93;26.33;;;1.70;42.50;;;;;;5030056;28;20968;-57
2021/12/05 10:43:27;;;;;;;38.80;26.30;;;1.80;35.90;;;;;;5026497;28;20555;-57
2021/12/05 10:45:55;;;;;;;38.20;27.20;;;1.80;32.20;;;;;;5030429;28;20514;-56
2021/12/05 10:48:26;;;;;;;41.37;27.90;;;1.80;40.30;;;;;;5032259;28;21187;-56
2021/12/05 10:50:56;;;;;;;40.20;25.80;;;1.90;26.00;;;;;;5028770;28;20562;-57
2021/12/05 10:53:31;;;;;;;41.03;28.27;;;2.00;99.90;;;;;;5025444;28;20569;-56
2021/12/05 10:56:01;;;;;;;37.00;26.80;;;2.00;99.90;;;;;;5029732;28;20534;-56
2021/12/05 10:58:34;;;;;;;37.83;26.63;;;2.00;25.40;;;;;;5030709;28;20885;-57
2021/12/05 11:01:07;;;;;;;39.40;26.70;;;2.10;25.30;;;;;;5029534;28;20494;-56
2021/12/05 11:03:34;;;;;;;47.33;35.47;;;2.00;43.30;;;;;;5024322;28;20550;-57
2021/12/05 11:06:17;;;;;;;42.30;27.97;;;2.10;40.20;;;;;;5028772;28;20513;-57
2021/12/05 11:08:43;;;;;;;37.80;27.40;;;2.10;47.50;;;;;;5013925;28;22533;-58
2021/12/05 11:11:12;;;;;;;37.10;26.33;;;2.10;40.00;;;;;;5010923;28;20497;-56
2021/12/05 11:13:43;;;;;;;37.93;26.70;;;2.30;23.20;;;;;;5008766;28;20583;-57
2021/12/05 11:16:32;;;;;;;38.10;26.90;;;2.30;32.30;;;;;;5012969;28;20463;-57
2021/12/05 11:18:59;;;;;;;38.70;27.37;;;2.60;42.50;;;;;;5012673;28;20462;-54
2021/12/05 11:21:32;;;;;;;37.40;26.20;;;2.50;78.10;;;;;;5012003;28;20501;-55
2021/12/05 11:24:11;;;;;;;40.97;26.87;;;2.40;75.00;;;;;;5027985;28;20569;-55
2021/12/05 11:26:40;;;;;;;37.37;28.00;;;2.30;96.70;;;;;;5025853;28;20484;-55
2021/12/05 11:29:07;;;;;;;44.03;27.80;;;2.20;88.10;;;;;;5031482;28;20459;-55
2021/12/05 11:31:34;;;;;;;42.13;28.83;;;2.20;68.80;;;;;;5028209;28;20658;-56
2021/12/05 11:34:01;;;;;;;44.40;30.73;;;2.30;65.10;;;;;;5029423;28;20482;-55
2021/12/05 11:36:32;;;;;;;44.80;30.20;;;2.30;71.30;;;;;;5030447;28;20546;-57
2021/12/05 11:39:00;;;;;;;41.53;29.47;;;2.30;67.40;;;;;;5031279;28;20878;-56
2021/12/05 11:41:26;;;;;;;44.30;29.57;;;2.40;63.20;;;;;;5020836;28;20550;-56
2021/12/05 11:43:56;;;;;;;41.40;28.17;;;2.30;96.80;;;;;;5026820;28;20517;-55
2021/12/05 11:46:27;;;;;;;43.50;28.90;;;2.10;85.40;;;;;;5026455;28;20488;-55
2021/12/05 11:48:56;;;;;;;40.47;29.30;;;2.10;67.20;;;;;;5028634;28;20455;-56
2021/12/05 11:51:30;;;;;;;38.37;27.70;;;2.10;61.80;;;;;;5026785;28;20543;-56
2021/12/05 11:54:00;;;;;;;44.20;30.87;;;2.10;57.00;;;;;;5020966;28;20510;-55
2021/12/05 11:56:47;;;;;;;39.87;28.80;;;2.20;48.70;;;;;;5029801;28;20993;-50
2021/12/05 11:59:19;;;;;;;40.73;28.77;;;2.20;53.10;;;;;;5031525;28;20549;-50
2021/12/05 12:01:49;;;;;;;46.27;28.50;;;2.20;52.90;;;;;;5028485;28;20502;-51
2021/12/05 12:04:18;;;;;;;38.63;26.80;;;2.10;47.40;;;;;;5030311;28;20574;-52
2021/12/05 12:07:04;;;;;;;42.53;29.97;;;2.00;56.50;;;;;;5031185;28;20483;-52
2021/12/05 12:09:32;;;;;;;38.87;28.00;;;2.00;52.70;;;;;;5028542;28;20574;-51
2021/12/05 12:11:59;;;;;;;47.50;30.33;;;2.10;39.70;;;;;;5029037;28;20498;-51
2021/12/05 12:14:27;;;;;;;43.90;29.30;;;2.10;44.80;;;;;;5028351;28;20916;-51
2021/12/05 12:16:54;;;;;;;42.33;30.43;;;2.10;57.00;;;;;;5022666;28;20601;-50
2021/12/05 12:19:22;;;;;;;44.27;31.77;;;2.10;54.00;;;;;;5030722;28;20490;-51
2021/12/05 12:21:56;;;;;;;47.37;31.93;;;2.10;46.70;;;;;;5031518;28;20459;-51
2021/12/05 12:24:24;;;;;;;46.73;31.10;;;2.10;46.70;;;;;;5025073;28;21053;-51
2021/12/05 12:26:51;;;;;;;41.23;29.40;;;2.00;49.70;;;;;;5031403;28;20853;-50
2021/12/05 12:29:18;;;;;;;43.87;30.13;;;2.00;47.70;;;;;;5032597;28;20549;-49
2021/12/05 12:31:48;;;;;;;39.97;28.17;;;1.90;42.50;;;;;;5025932;28;20558;-51
2021/12/05 12:34:19;;;;;;;38.90;29.60;;;1.80;40.40;;;;;;5031113;28;20518;-50
2021/12/05 12:36:48;;;;;;;42.90;29.83;;;1.90;27.90;;;;;;5027899;28;20490;-50
2021/12/05 12:39:32;;;;;;;42.63;29.83;;;1.90;29.50;;;;;;5033118;28;20438;-51
2021/12/05 12:42:06;;;;;;;43.00;30.50;;;1.80;24.20;;;;;;5031175;28;20513;-51
2021/12/05 12:44:33;;;;;;;42.30;30.60;;;1.80;28.70;;;;;;5029931;28;20565;-50
2021/12/05 12:47:04;;;;;;;38.80;28.43;;;1.80;21.30;;;;;;5031507;28;20933;-50
2021/12/05 12:49:34;;;;;;;43.60;30.77;;;1.80;73.10;;;;;;5031206;28;20549;-50
2021/12/05 12:52:04;;;;;;;41.93;28.87;;;1.70;29.10;;;;;;5026915;28;20472;-51
2021/12/05 12:54:36;;;;;;;37.73;28.70;;;1.70;99.90;;;;;;5031136;28;20479;-51
2021/12/05 12:57:11;;;;;;;38.60;28.83;;;1.70;99.90;;;;;;5033031;28;20876;-51
2021/12/05 12:59:43;;;;;;;42.20;29.73;;;1.70;99.90;;;;;;5030925;28;20458;-51
2021/12/05 13:02:27;;;;;;;45.10;32.10;;;1.80;99.90;;;;;;5022596;28;20495;-51
2021/12/05 13:05:04;;;;;;;56.73;38.40;;;1.80;99.90;;;;;;5010692;28;20616;-51
2021/12/05 13:10:24;;;;;;;45.93;32.00;;;1.80;99.90;;;;;;5018015;28;21084;-51
2021/12/05 13:13:02;;;;;;;49.27;30.47;;;1.70;99.90;;;;;;5027201;28;20943;-50
2021/12/05 13:15:39;;;;;;;46.90;32.90;;;1.70;99.90;;;;;;5024318;28;20463;-50
2021/12/05 13:18:21;;;;;;;46.47;32.13;;;1.80;99.90;;;;;;5023903;28;20460;-50
2021/12/05 13:20:54;;;;;;;48.77;33.47;;;1.70;99.90;;;;;;5027929;28;20461;-51
2021/12/05 13:23:28;;;;;;;42.17;31.93;;;1.80;99.90;;;;;;5026031;28;20490;-50
2021/12/05 13:26:07;;;;;;;37.53;26.97;;;1.80;99.90;;;;;;5024512;28;20688;-51
2021/12/05 13:28:36;;;;;;;36.60;27.90;;;1.70;99.90;;;;;;5028727;28;20549;-50
2021/12/05 13:31:35;;;;;;;42.23;28.10;;;1.70;99.90;;;;;;5027604;28;20934;-50
2021/12/05 13:34:24;;;;;;;36.50;26.40;;;1.80;99.90;;;;;;5024365;28;21026;-50
2021/12/05 13:36:54;;;;;;;35.13;28.00;;;1.90;99.90;;;;;;5027680;28;20447;-50
2021/12/05 13:39:34;;;;;;;40.33;27.97;;;1.90;99.90;;;;;;5029552;28;20463;-50
2021/12/05 13:42:05;;;;;;;43.57;28.97;;;2.00;99.90;;;;;;5027214;28;20898;-50
2021/12/05 13:45:10;;;;;;;46.53;30.53;;;1.90;99.90;;;;;;5022233;28;20594;-50
2021/12/05 13:47:40;;;;;;;42.37;28.37;;;1.90;99.90;;;;;;5019203;28;20572;-50
2021/12/05 13:50:29;;;;;;;48.50;34.00;;;1.90;99.90;;;;;;5025026;28;20474;-51
2021/12/05 13:52:58;;;;;;;45.53;29.83;;;1.90;99.90;;;;;;5028103;28;20539;-50
2021/12/05 13:55:34;;;;;;;43.47;32.73;;;1.80;99.90;;;;;;5026738;28;20991;-50
2021/12/05 13:58:40;;;;;;;43.67;28.70;;;1.70;91.00;;;;;;5025647;28;20454;-51
2021/12/05 14:01:11;;;;;;;47.60;36.27;;;1.80;99.90;;;;;;4965159;28;21070;-50
2021/12/05 14:03:44;;;;;;;45.70;30.80;;;1.70;99.90;;;;;;4959006;28;20477;-51
2021/12/05 14:06:49;;;;;;;51.57;37.57;;;1.80;99.90;;;;;;4999193;28;20588;-51
2021/12/05 14:09:19;;;;;;;43.60;31.17;;;1.80;99.90;;;;;;5027325;28;20458;-50
2021/12/05 14:11:55;;;;;;;44.23;31.40;;;1.80;99.90;;;;;;5023612;28;20468;-49
2021/12/05 14:14:25;;;;;;;55.40;38.23;;;1.80;99.90;;;;;;5027724;28;20494;-50
2021/12/05 14:16:54;;;;;;;60.97;40.80;;;1.70;99.90;;;;;;5028628;28;20458;-50
2021/12/05 14:19:23;;;;;;;53.40;35.63;;;1.70;99.90;;;;;;5025397;28;20486;-49
2021/12/05 14:21:52;;;;;;;53.67;37.97;;;1.70;99.90;;;;;;5026933;28;20959;-55
2021/12/05 14:24:21;;;;;;;41.50;29.43;;;1.70;99.90;;;;;;5027201;28;20570;-56
2021/12/05 14:26:49;;;;;;;40.47;30.07;;;1.80;99.90;;;;;;5028102;28;20522;-55
2021/12/05 14:29:19;;;;;;;44.37;29.20;;;1.70;99.90;;;;;;5026232;28;20458;-56
2021/12/05 14:31:51;;;;;;;48.83;34.00;;;1.80;99.90;;;;;;5019847;28;20494;-47
2021/12/05 14:34:21;;;;;;;42.60;28.93;;;1.80;99.90;;;;;;5025740;28;20589;-49
2021/12/05 14:36:52;;;;;;;40.20;27.60;;;1.70;99.90;;;;;;5025513;28;20458;-48
2021/12/05 14:39:25;;;;;;;37.10;27.63;;;1.70;99.90;;;;;;5026504;28;20499;-47
2021/12/05 14:41:53;;;;;;;36.67;27.87;;;1.70;99.90;;;;;;5030027;28;20466;-48
2021/12/05 14:44:21;;;;;;;42.57;28.87;;;1.60;99.90;;;;;;5030341;28;20581;-47
2021/12/05 14:46:56;;;;;;;45.63;30.77;;;1.60;99.90;;;;;;5026023;28;20545;-56
2021/12/05 14:49:25;;;;;;;40.83;29.00;;;1.60;99.90;;;;;;5021698;28;20466;-55
2021/12/05 14:51:53;;;;;;;45.53;30.10;;;1.60;99.90;;;;;;5027366;28;20529;-55
2021/12/05 14:54:24;;;;;;;48.80;32.50;;;1.60;99.90;;;;;;5027570;28;20541;-56
2021/12/05 14:56:52;;;;;;;46.57;32.50;;;1.60;99.90;;;;;;5024469;28;20487;-56
2021/12/05 14:59:19;;;;;;;46.67;31.90;;;1.60;99.90;;;;;;5027040;28;21023;-56
2021/12/05 15:01:49;;;;;;;54.60;31.23;;;1.60;99.90;;;;;;5024233;28;20537;-57
2021/12/05 15:04:22;;;;;;;47.37;31.23;;;1.50;99.90;;;;;;5014990;28;20585;-54
2021/12/05 15:06:49;;;;;;;46.47;31.90;;;1.50;99.90;;;;;;5011767;28;20573;-56
2021/12/05 15:09:21;;;;;;;65.10;41.73;;;1.50;99.90;;;;;;5027766;28;20557;-55
2021/12/05 15:11:54;;;;;;;62.87;40.40;;;1.50;99.90;;;;;;5023407;28;20525;-55
2021/12/05 15:14:21;;;;;;;54.60;35.43;;;1.60;99.90;;;;;;5023914;28;20522;-55
2021/12/05 15:16:53;;;;;;;52.30;35.90;;;1.50;99.90;;;;;;5024321;28;20545;-55
2021/12/05 15:19:22;;;;;;;49.57;33.23;;;1.50;99.90;;;;;;5022441;28;20550;-55
2021/12/05 15:21:49;;;;;;;97.30;49.90;;;1.50;99.90;;;;;;5025013;28;20484;-55
2021/12/05 15:24:18;;;;;;;124.87;66.17;;;1.50;99.90;;;;;;5027069;28;20323;-55
2021/12/05 15:26:44;;;;;;;116.57;62.53;;;1.60;99.90;;;;;;5027489;28;20519;-57
2021/12/05 15:29:11;;;;;;;58.00;38.17;;;1.60;99.90;;;;;;5025260;28;20541;-54
2021/12/05 15:31:40;;;;;;;68.10;40.17;;;1.60;99.90;;;;;;5029340;28;20463;-54
2021/12/05 15:34:28;;;;;;;58.33;36.90;;;1.60;99.90;;;;;;5026189;28;21046;-54
2021/12/05 15:36:57;;;;;;;51.97;32.30;;;1.60;99.90;;;;;;5026821;28;20486;-56
2021/12/05 15:39:27;;;;;;;67.37;44.00;;;1.60;99.90;;;;;;5024561;28;20555;-56
2021/12/05 15:41:56;;;;;;;70.23;49.30;;;1.50;99.90;;;;;;5028799;28;20492;-56
2021/12/05 15:44:29;;;;;;;58.10;42.17;;;1.50;99.90;;;;;;5030374;28;21155;-53
2021/12/05 15:47:02;;;;;;;56.47;39.00;;;1.50;99.90;;;;;;5029510;28;20578;-52
2021/12/05 15:49:57;;;;;;;55.57;37.43;;;1.50;99.90;;;;;;5026760;28;20518;-53
2021/12/05 15:52:27;;;;;;;57.35;35.35;;;1.50;99.90;;;;;;5026311;28;20445;-52
2021/12/05 15:54:56;;;;;;;56.27;37.67;;;1.40;99.90;;;;;;5029114;28;20681;-52
2021/12/05 15:57:31;;;;;;;59.40;37.03;;;1.40;99.90;;;;;;5024592;28;20466;-51
2021/12/05 16:00:00;;;;;;;57.47;36.17;;;1.40;99.90;;;;;;5023104;28;20466;-52
2021/12/05 16:02:26;;;;;;;56.73;36.90;;;1.50;99.90;;;;;;5024007;28;21053;-52
2021/12/05 16:04:56;;;;;;;58.20;37.87;;;1.50;99.90;;;;;;5024427;28;20924;-53
2021/12/05 16:07:27;;;;;;;59.57;37.60;;;1.60;99.90;;;;;;5022835;28;20977;-52
2021/12/05 16:10:10;;;;;;;53.27;35.03;;;1.60;99.90;;;;;;5024337;28;20467;-52
2021/12/05 16:12:40;;;;;;;56.33;37.10;;;1.60;99.90;;;;;;5022991;28;20537;-52
2021/12/05 16:15:07;;;;;;;64.53;40.13;;;1.60;99.90;;;;;;5033229;22;20536;-54
2021/12/05 16:17:34;;;;;;;65.03;41.77;;;1.60;99.90;;;;;;5003782;28;20491;-53
2021/12/05 16:20:08;;;;;;;66.50;39.87;;;1.60;99.90;;;;;;5001550;28;20464;-53
2021/12/05 16:22:57;;;;;;;74.80;42.90;;;1.60;99.90;;;;;;5004787;28;20459;-55
2021/12/05 16:25:24;;;;;;;60.10;39.33;;;1.60;99.90;;;;;;4986868;28;20481;-53
2021/12/05 16:27:53;;;;;;;66.17;39.87;;;1.60;99.90;;;;;;4988724;28;20616;-54
2021/12/05 16:30:24;;;;;;;61.77;37.70;;;1.60;99.90;;;;;;4991256;28;20475;-54
2021/12/05 16:32:52;;;;;;;66.93;40.67;;;1.60;99.90;;;;;;4987778;28;20533;-53
2021/12/05 16:35:29;;;;;;;63.37;39.10;;;1.60;99.90;;;;;;4991105;28;20511;-54
2021/12/05 16:37:56;;;;;;;70.93;40.07;;;1.60;99.90;;;;;;4988504;28;20539;-52
2021/12/05 16:40:23;;;;;;;64.77;42.93;;;1.50;99.90;;;;;;4991164;28;20492;-54
2021/12/05 16:43:07;;;;;;;67.70;41.00;;;1.60;99.90;;;;;;4985538;28;20496;-53
2021/12/05 16:45:36;;;;;;;64.97;41.47;;;1.60;99.90;;;;;;4991182;28;20561;-53
2021/12/05 16:48:03;;;;;;;85.27;50.83;;;1.60;99.90;;;;;;4981083;28;20616;-54
2021/12/05 16:50:31;;;;;;;77.00;52.10;;;1.60;99.90;;;;;;4986663;28;20551;-54
2021/12/05 16:52:58;;;;;;;75.67;43.93;;;1.50;99.90;;;;;;4983850;28;20500;-54
2021/12/05 16:55:28;;;;;;;64.77;41.50;;;1.50;99.90;;;;;;4982857;28;20492;-53
2021/12/05 16:58:04;;;;;;;67.17;41.93;;;1.50;99.90;;;;;;4983800;28;20457;-54
2021/12/05 17:00:32;;;;;;;64.00;41.87;;;1.50;99.90;;;;;;4980355;28;20466;-53